La Veta Pass, CO

1:59 PM MDT on September 17, 2014 (GMT -0600)
Stokes | Change Station
CLOSE
Current Station
Airport
Location: Trinidad,
Elevation: 5761 ft
Nearby Weather Stations

Elev 5761 ft 37.26 °N, 104.33 °W | Updated 1 hour ago

Partly Cloudy
Partly Cloudy
80 °F
Feels Like 80 °F
N
6
Wind Variable Wind from South

Today
High -- | Low -- °F
--% Chance of Precip.
Yesterday
High -- | Low -- °F
Precip. -- in
6:44 AM 7:05 PM
Waning Crescent, 33% visible
Pressure 29.85 in
Visibility 10.0 miles
Clouds Clear
Dew Point 42 °F
Humidity 26%
Rainfall 0.00 in
Snow Depth 0 in , 77 in , 11 in
UV 9 out of 12
Pollen 5.90 out of 12
Air Quality Not available.
Flu Activity Not available.
METAR KTAD 171854Z AUTO 17005KT 10SM CLR 27/06 A3011 RMK AO2 SLP108 T02670056

More Conditions Fewer Conditions

Pressure 29.85 in
Visibility 10.0 miles
Clouds Clear
Dew Point 42 °F
Humidity 26%
Rainfall 0.00 in
Snow Depth 0 in , 77 in , 11 in
UV 9 out of 12
Pollen 5.90 out of 12
Air Quality Not available.
Flu Activity Not available.
METAR KTAD 171854Z AUTO 17005KT 10SM CLR 27/06 A3011 RMK AO2 SLP108 T02670056

More Conditions Fewer Conditions

10-Day Weather Forecast

Almanac

Astronomy

Sep. 17, 2014 Rise Set
Actual Time 6:44 AM MDT 7:05 PM MDT
Civil Twilight 6:18 AM MDT 7:31 PM MDT
Nautical Twilight 5:47 AM MDT 8:02 PM MDT
Astronomical Twilight 5:16 AM MDT 8:33 PM MDT
Moon 12:51 AM MDT 3:12 PM MDT
Length of Visible Light 13h 13m
Length of Day
12h 20m
Tomorrow will be 2m 22s shorter.
Waning Crescent, 33% of the Moon is Illuminated
Today
Waning Crescent
Sep 24
New
Oct 1
First Quarter
Oct 8
Full
Oct 15
Last Quarter

Today's Extremes

State Highs State Lows

Community

WunderPhotos

Upload Photos

1,754,149 photos uploaded!

Nearby

Snow Depth

Station Depth Elevation
Cascade #2 0 in 8920 ft
Never Summer 77 in 10280 ft
Mccoy Park 11 in 9480 ft
Upper San Juan 0 in 10130 ft
Beaver Creek Village 0 in 8500 ft

Earthquake Activity

City Distance Mag. Time & Date
No recent earthquake activity has been reported nearby.
Minimum magnitude displayed is 2.5.

Coastal Water Temperatures

Place Temperature
No Stations Reporting

Nearby Weather Stations